sensor_id;sensor_type;location;lat;lon;timestamp;P1;durP1;ratioP1;P2;durP2;ratioP2
63567;SDS011;49715;42.386;20.434;2022-12-17T00:02:12;27.80;;;15.35;;
63567;SDS011;49715;42.386;20.434;2022-12-17T00:04:57;29.30;;;14.88;;
63567;SDS011;49715;42.386;20.434;2022-12-17T00:07:42;18.40;;;12.00;;
63567;SDS011;49715;42.386;20.434;2022-12-17T00:10:34;28.20;;;13.88;;
63567;SDS011;49715;42.386;20.434;2022-12-17T00:13:27;17.08;;;9.98;;
63567;SDS011;49715;42.386;20.434;2022-12-17T00:16:12;14.57;;;10.70;;
63567;SDS011;49715;42.386;20.434;2022-12-17T00:18:57;23.77;;;12.18;;
63567;SDS011;49715;42.386;20.434;2022-12-17T00:21:42;17.92;;;12.05;;
63567;SDS011;49715;42.386;20.434;2022-12-17T00:24:27;20.98;;;12.25;;
63567;SDS011;49715;42.386;20.434;2022-12-17T00:27:12;17.15;;;11.30;;
63567;SDS011;49715;42.386;20.434;2022-12-17T00:29:57;22.75;;;13.15;;
63567;SDS011;49715;42.386;20.434;2022-12-17T00:32:43;22.08;;;12.88;;
63567;SDS011;49715;42.386;20.434;2022-12-17T00:35:28;15.48;;;10.77;;
63567;SDS011;49715;42.386;20.434;2022-12-17T00:38:17;18.17;;;11.32;;
63567;SDS011;49715;42.386;20.434;2022-12-17T00:41:02;19.00;;;13.50;;
63567;SDS011;49715;42.386;20.434;2022-12-17T00:43:48;20.10;;;13.02;;
63567;SDS011;49715;42.386;20.434;2022-12-17T00:46:32;18.17;;;12.25;;
63567;SDS011;49715;42.386;20.434;2022-12-17T00:49:17;15.55;;;8.73;;
63567;SDS011;49715;42.386;20.434;2022-12-17T00:52:02;14.88;;;9.05;;
63567;SDS011;49715;42.386;20.434;2022-12-17T00:54:47;13.40;;;9.10;;
63567;SDS011;49715;42.386;20.434;2022-12-17T00:57:32;14.38;;;9.48;;
63567;SDS011;49715;42.386;20.434;2022-12-17T01:00:17;14.32;;;10.40;;
63567;SDS011;49715;42.386;20.434;2022-12-17T01:03:05;15.93;;;9.70;;
63567;SDS011;49715;42.386;20.434;2022-12-17T01:05:53;12.85;;;9.40;;
63567;SDS011;49715;42.386;20.434;2022-12-17T01:08:38;14.18;;;9.60;;
63567;SDS011;49715;42.386;20.434;2022-12-17T01:11:23;14.30;;;9.98;;
63567;SDS011;49715;42.386;20.434;2022-12-17T01:14:08;9.95;;;5.65;;
63567;SDS011;49715;42.386;20.434;2022-12-17T01:16:53;7.72;;;2.30;;
63567;SDS011;49715;42.386;20.434;2022-12-17T01:19:38;7.00;;;1.85;;
63567;SDS011;49715;42.386;20.434;2022-12-17T01:22:23;8.02;;;1.42;;
63567;SDS011;49715;42.386;20.434;2022-12-17T01:25:08;8.20;;;1.85;;
63567;SDS011;49715;42.386;20.434;2022-12-17T01:27:53;7.63;;;1.45;;
63567;SDS011;49715;42.386;20.434;2022-12-17T01:30:37;6.55;;;1.98;;
63567;SDS011;49715;42.386;20.434;2022-12-17T01:33:22;9.73;;;2.40;;
63567;SDS011;49715;42.386;20.434;2022-12-17T01:36:08;10.90;;;3.08;;
63567;SDS011;49715;42.386;20.434;2022-12-17T01:38:53;6.80;;;2.33;;
63567;SDS011;49715;42.386;20.434;2022-12-17T01:41:38;7.93;;;1.85;;
63567;SDS011;49715;42.386;20.434;2022-12-17T01:47:27;7.78;;;2.10;;
63567;SDS011;49715;42.386;20.434;2022-12-17T01:50:16;6.95;;;1.77;;
63567;SDS011;49715;42.386;20.434;2022-12-17T01:53:03;9.70;;;1.70;;
63567;SDS011;49715;42.386;20.434;2022-12-17T01:55:51;6.90;;;1.60;;
63567;SDS011;49715;42.386;20.434;2022-12-17T01:58:37;9.35;;;1.85;;
63567;SDS011;49715;42.386;20.434;2022-12-17T02:01:24;9.88;;;2.00;;
63567;SDS011;49715;42.386;20.434;2022-12-17T02:04:09;8.68;;;1.80;;
63567;SDS011;49715;42.386;20.434;2022-12-17T02:07:08;9.73;;;1.70;;
63567;SDS011;49715;42.386;20.434;2022-12-17T02:13:17;6.28;;;1.80;;
63567;SDS011;49715;42.386;20.434;2022-12-17T02:16:27;5.93;;;2.00;;
63567;SDS011;49715;42.386;20.434;2022-12-17T02:19:44;8.30;;;2.13;;
63567;SDS011;49715;42.386;20.434;2022-12-17T02:25:39;10.25;;;2.00;;
63567;SDS011;49715;42.386;20.434;2022-12-17T02:28:33;15.60;;;3.30;;
63567;SDS011;49715;42.386;20.434;2022-12-17T02:31:20;9.13;;;2.50;;
63567;SDS011;49715;42.386;20.434;2022-12-17T02:34:07;5.95;;;1.98;;
63567;SDS011;49715;42.386;20.434;2022-12-17T02:36:52;10.15;;;4.20;;
63567;SDS011;49715;42.386;20.434;2022-12-17T02:39:37;9.45;;;3.63;;
63567;SDS011;49715;42.386;20.434;2022-12-17T02:42:22;11.18;;;4.40;;
63567;SDS011;49715;42.386;20.434;2022-12-17T02:45:11;14.40;;;3.80;;
63567;SDS011;49715;42.386;20.434;2022-12-17T02:47:58;8.60;;;3.17;;
63567;SDS011;49715;42.386;20.434;2022-12-17T02:50:45;7.32;;;2.67;;
63567;SDS011;49715;42.386;20.434;2022-12-17T02:53:32;7.68;;;2.80;;
63567;SDS011;49715;42.386;20.434;2022-12-17T02:56:18;5.27;;;2.80;;
63567;SDS011;49715;42.386;20.434;2022-12-17T02:59:03;10.68;;;3.15;;
63567;SDS011;49715;42.386;20.434;2022-12-17T03:01:48;6.33;;;1.90;;
63567;SDS011;49715;42.386;20.434;2022-12-17T03:04:33;8.65;;;1.90;;
63567;SDS011;49715;42.386;20.434;2022-12-17T03:07:18;16.38;;;5.45;;
63567;SDS011;49715;42.386;20.434;2022-12-17T03:10:03;12.77;;;2.55;;
63567;SDS011;49715;42.386;20.434;2022-12-17T03:12:48;9.73;;;1.80;;
63567;SDS011;49715;42.386;20.434;2022-12-17T03:15:33;6.70;;;1.90;;
63567;SDS011;49715;42.386;20.434;2022-12-17T03:18:18;10.43;;;2.80;;
63567;SDS011;49715;42.386;20.434;2022-12-17T03:21:03;5.38;;;1.73;;
63567;SDS011;49715;42.386;20.434;2022-12-17T03:23:48;7.97;;;1.50;;
63567;SDS011;49715;42.386;20.434;2022-12-17T03:26:33;12.00;;;1.65;;
63567;SDS011;49715;42.386;20.434;2022-12-17T03:29:18;8.88;;;1.65;;
63567;SDS011;49715;42.386;20.434;2022-12-17T03:32:04;9.38;;;1.50;;
63567;SDS011;49715;42.386;20.434;2022-12-17T03:34:49;6.57;;;2.05;;
63567;SDS011;49715;42.386;20.434;2022-12-17T03:37:45;8.57;;;1.98;;
63567;SDS011;49715;42.386;20.434;2022-12-17T03:40:29;7.03;;;1.48;;
63567;SDS011;49715;42.386;20.434;2022-12-17T03:43:14;6.10;;;1.23;;
63567;SDS011;49715;42.386;20.434;2022-12-17T03:46:01;7.20;;;1.98;;
63567;SDS011;49715;42.386;20.434;2022-12-17T03:48:46;6.13;;;1.50;;
63567;SDS011;49715;42.386;20.434;2022-12-17T03:51:31;6.30;;;1.13;;
63567;SDS011;49715;42.386;20.434;2022-12-17T03:54:15;6.35;;;1.60;;
63567;SDS011;49715;42.386;20.434;2022-12-17T03:57:00;6.38;;;1.27;;
63567;SDS011;49715;42.386;20.434;2022-12-17T03:59:45;8.20;;;1.50;;
63567;SDS011;49715;42.386;20.434;2022-12-17T04:02:38;4.57;;;1.48;;
63567;SDS011;49715;42.386;20.434;2022-12-17T04:05:23;6.90;;;1.38;;
63567;SDS011;49715;42.386;20.434;2022-12-17T04:08:07;4.97;;;1.33;;
63567;SDS011;49715;42.386;20.434;2022-12-17T04:10:52;10.88;;;1.90;;
63567;SDS011;49715;42.386;20.434;2022-12-17T04:13:37;4.60;;;1.40;;
63567;SDS011;49715;42.386;20.434;2022-12-17T04:16:22;10.88;;;1.42;;
63567;SDS011;49715;42.386;20.434;2022-12-17T04:19:07;10.75;;;1.80;;
63567;SDS011;49715;42.386;20.434;2022-12-17T04:21:52;5.53;;;1.30;;
63567;SDS011;49715;42.386;20.434;2022-12-17T04:24:36;5.00;;;1.50;;
63567;SDS011;49715;42.386;20.434;2022-12-17T04:27:21;7.65;;;1.42;;
63567;SDS011;49715;42.386;20.434;2022-12-17T04:30:08;4.68;;;1.20;;
63567;SDS011;49715;42.386;20.434;2022-12-17T04:35:39;5.75;;;1.20;;
63567;SDS011;49715;42.386;20.434;2022-12-17T04:38:24;3.95;;;1.13;;
63567;SDS011;49715;42.386;20.434;2022-12-17T04:41:09;3.75;;;1.00;;
63567;SDS011;49715;42.386;20.434;2022-12-17T04:43:54;5.32;;;1.02;;
63567;SDS011;49715;42.386;20.434;2022-12-17T04:46:38;2.70;;;1.15;;
63567;SDS011;49715;42.386;20.434;2022-12-17T04:49:23;5.90;;;1.20;;
63567;SDS011;49715;42.386;20.434;2022-12-17T04:52:08;6.50;;;1.80;;
63567;SDS011;49715;42.386;20.434;2022-12-17T04:54:53;7.07;;;1.70;;
63567;SDS011;49715;42.386;20.434;2022-12-17T04:57:38;3.83;;;1.55;;
63567;SDS011;49715;42.386;20.434;2022-12-17T05:00:23;8.25;;;1.63;;
63567;SDS011;49715;42.386;20.434;2022-12-17T05:03:10;6.65;;;1.70;;
63567;SDS011;49715;42.386;20.434;2022-12-17T05:05:58;8.13;;;2.78;;
63567;SDS011;49715;42.386;20.434;2022-12-17T05:08:44;5.63;;;2.38;;
63567;SDS011;49715;42.386;20.434;2022-12-17T05:11:29;3.55;;;1.35;;
63567;SDS011;49715;42.386;20.434;2022-12-17T05:14:14;3.97;;;1.67;;
63567;SDS011;49715;42.386;20.434;2022-12-17T05:16:59;2.95;;;1.60;;
63567;SDS011;49715;42.386;20.434;2022-12-17T05:19:52;4.80;;;1.55;;
63567;SDS011;49715;42.386;20.434;2022-12-17T05:22:37;4.20;;;1.20;;
63567;SDS011;49715;42.386;20.434;2022-12-17T05:25:21;2.72;;;1.15;;
63567;SDS011;49715;42.386;20.434;2022-12-17T05:28:06;3.47;;;2.90;;
63567;SDS011;49715;42.386;20.434;2022-12-17T05:30:52;4.78;;;1.83;;
63567;SDS011;49715;42.386;20.434;2022-12-17T05:36:23;2.75;;;1.30;;
63567;SDS011;49715;42.386;20.434;2022-12-17T05:39:08;8.48;;;4.30;;
63567;SDS011;49715;42.386;20.434;2022-12-17T05:41:53;7.68;;;3.78;;
63567;SDS011;49715;42.386;20.434;2022-12-17T05:44:38;7.75;;;4.20;;
63567;SDS011;49715;42.386;20.434;2022-12-17T05:47:23;8.02;;;4.82;;
63567;SDS011;49715;42.386;20.434;2022-12-17T05:50:08;4.57;;;2.55;;
63567;SDS011;49715;42.386;20.434;2022-12-17T05:52:53;4.38;;;1.70;;
63567;SDS011;49715;42.386;20.434;2022-12-17T05:55:47;4.65;;;1.50;;
63567;SDS011;49715;42.386;20.434;2022-12-17T05:58:32;8.32;;;3.88;;
63567;SDS011;49715;42.386;20.434;2022-12-17T06:01:17;13.30;;;5.95;;
63567;SDS011;49715;42.386;20.434;2022-12-17T06:04:02;11.65;;;5.53;;
63567;SDS011;49715;42.386;20.434;2022-12-17T06:06:47;12.88;;;7.13;;
63567;SDS011;49715;42.386;20.434;2022-12-17T06:09:32;8.25;;;3.42;;
63567;SDS011;49715;42.386;20.434;2022-12-17T06:12:17;1.65;;;0.80;;
63567;SDS011;49715;42.386;20.434;2022-12-17T06:15:02;3.15;;;0.80;;
63567;SDS011;49715;42.386;20.434;2022-12-17T06:17:54;2.90;;;1.05;;
63567;SDS011;49715;42.386;20.434;2022-12-17T06:20:40;2.22;;;0.90;;
63567;SDS011;49715;42.386;20.434;2022-12-17T06:23:25;3.47;;;1.30;;
63567;SDS011;49715;42.386;20.434;2022-12-17T06:26:09;2.53;;;0.80;;
63567;SDS011;49715;42.386;20.434;2022-12-17T06:29:05;3.05;;;0.80;;
63567;SDS011;49715;42.386;20.434;2022-12-17T06:31:50;4.35;;;0.80;;
63567;SDS011;49715;42.386;20.434;2022-12-17T06:34:35;4.68;;;1.20;;
63567;SDS011;49715;42.386;20.434;2022-12-17T06:37:19;3.50;;;1.20;;
63567;SDS011;49715;42.386;20.434;2022-12-17T06:40:04;3.30;;;1.00;;
63567;SDS011;49715;42.386;20.434;2022-12-17T06:42:53;3.40;;;1.17;;
63567;SDS011;49715;42.386;20.434;2022-12-17T06:45:39;3.63;;;1.10;;
63567;SDS011;49715;42.386;20.434;2022-12-17T06:48:24;5.25;;;1.20;;
63567;SDS011;49715;42.386;20.434;2022-12-17T06:51:09;2.63;;;1.30;;
63567;SDS011;49715;42.386;20.434;2022-12-17T06:53:54;5.43;;;1.95;;
63567;SDS011;49715;42.386;20.434;2022-12-17T06:56:39;4.72;;;2.28;;
63567;SDS011;49715;42.386;20.434;2022-12-17T06:59:24;7.72;;;2.05;;
63567;SDS011;49715;42.386;20.434;2022-12-17T07:02:09;4.55;;;1.23;;
63567;SDS011;49715;42.386;20.434;2022-12-17T07:04:54;3.55;;;0.90;;
63567;SDS011;49715;42.386;20.434;2022-12-17T07:07:39;2.95;;;1.27;;
63567;SDS011;49715;42.386;20.434;2022-12-17T07:10:24;3.35;;;1.58;;
63567;SDS011;49715;42.386;20.434;2022-12-17T07:13:09;6.60;;;2.10;;
63567;SDS011;49715;42.386;20.434;2022-12-17T07:16:01;6.15;;;2.70;;
63567;SDS011;49715;42.386;20.434;2022-12-17T07:18:46;7.45;;;2.50;;
63567;SDS011;49715;42.386;20.434;2022-12-17T07:21:31;5.75;;;1.85;;
63567;SDS011;49715;42.386;20.434;2022-12-17T07:24:16;4.38;;;2.00;;
63567;SDS011;49715;42.386;20.434;2022-12-17T07:27:01;4.75;;;1.70;;
63567;SDS011;49715;42.386;20.434;2022-12-17T07:29:46;4.00;;;1.20;;
63567;SDS011;49715;42.386;20.434;2022-12-17T07:32:30;4.00;;;1.65;;
63567;SDS011;49715;42.386;20.434;2022-12-17T07:35:20;8.90;;;2.80;;
63567;SDS011;49715;42.386;20.434;2022-12-17T07:38:05;6.93;;;3.03;;
63567;SDS011;49715;42.386;20.434;2022-12-17T07:40:49;4.55;;;2.47;;
63567;SDS011;49715;42.386;20.434;2022-12-17T07:43:34;6.45;;;2.83;;
63567;SDS011;49715;42.386;20.434;2022-12-17T07:46:19;5.88;;;3.00;;
63567;SDS011;49715;42.386;20.434;2022-12-17T07:49:05;10.10;;;3.70;;
63567;SDS011;49715;42.386;20.434;2022-12-17T07:51:50;4.05;;;2.00;;
63567;SDS011;49715;42.386;20.434;2022-12-17T07:54:34;8.15;;;3.42;;
63567;SDS011;49715;42.386;20.434;2022-12-17T07:57:22;4.32;;;2.53;;
63567;SDS011;49715;42.386;20.434;2022-12-17T08:00:07;4.63;;;1.67;;
63567;SDS011;49715;42.386;20.434;2022-12-17T08:02:56;4.35;;;1.50;;
63567;SDS011;49715;42.386;20.434;2022-12-17T08:05:41;3.83;;;1.50;;
63567;SDS011;49715;42.386;20.434;2022-12-17T08:08:26;5.78;;;1.70;;
63567;SDS011;49715;42.386;20.434;2022-12-17T08:11:11;4.13;;;1.25;;
63567;SDS011;49715;42.386;20.434;2022-12-17T08:13:56;2.75;;;0.95;;
63567;SDS011;49715;42.386;20.434;2022-12-17T08:16:41;7.70;;;1.35;;
63567;SDS011;49715;42.386;20.434;2022-12-17T08:19:32;4.30;;;1.00;;
63567;SDS011;49715;42.386;20.434;2022-12-17T08:22:16;4.25;;;1.40;;
63567;SDS011;49715;42.386;20.434;2022-12-17T08:25:01;2.42;;;1.38;;
63567;SDS011;49715;42.386;20.434;2022-12-17T08:27:46;5.47;;;2.13;;
63567;SDS011;49715;42.386;20.434;2022-12-17T08:30:31;3.30;;;1.52;;
63567;SDS011;49715;42.386;20.434;2022-12-17T08:33:16;3.13;;;1.83;;
63567;SDS011;49715;42.386;20.434;2022-12-17T08:36:01;5.68;;;1.80;;
63567;SDS011;49715;42.386;20.434;2022-12-17T08:38:46;4.75;;;1.45;;
63567;SDS011;49715;42.386;20.434;2022-12-17T08:41:32;6.55;;;1.80;;
63567;SDS011;49715;42.386;20.434;2022-12-17T08:44:17;1.75;;;0.90;;
63567;SDS011;49715;42.386;20.434;2022-12-17T08:47:02;5.55;;;2.10;;
63567;SDS011;49715;42.386;20.434;2022-12-17T08:49:47;5.85;;;1.50;;
63567;SDS011;49715;42.386;20.434;2022-12-17T08:52:32;2.88;;;1.42;;
63567;SDS011;49715;42.386;20.434;2022-12-17T08:55:16;7.13;;;1.33;;
63567;SDS011;49715;42.386;20.434;2022-12-17T08:58:01;3.22;;;1.60;;
63567;SDS011;49715;42.386;20.434;2022-12-17T09:00:46;4.25;;;1.63;;
63567;SDS011;49715;42.386;20.434;2022-12-17T09:03:31;4.55;;;1.98;;
63567;SDS011;49715;42.386;20.434;2022-12-17T09:06:16;3.15;;;1.67;;
63567;SDS011;49715;42.386;20.434;2022-12-17T09:09:02;5.07;;;2.20;;
63567;SDS011;49715;42.386;20.434;2022-12-17T09:11:47;3.85;;;1.75;;
63567;SDS011;49715;42.386;20.434;2022-12-17T09:14:31;2.58;;;1.25;;
63567;SDS011;49715;42.386;20.434;2022-12-17T09:17:17;3.53;;;1.45;;
63567;SDS011;49715;42.386;20.434;2022-12-17T09:20:01;3.83;;;1.40;;
63567;SDS011;49715;42.386;20.434;2022-12-17T09:22:47;2.78;;;1.30;;
63567;SDS011;49715;42.386;20.434;2022-12-17T09:25:32;6.50;;;1.90;;
63567;SDS011;49715;42.386;20.434;2022-12-17T09:28:18;4.57;;;1.58;;
63567;SDS011;49715;42.386;20.434;2022-12-17T09:31:02;3.97;;;1.40;;
63567;SDS011;49715;42.386;20.434;2022-12-17T09:33:47;3.10;;;1.33;;
63567;SDS011;49715;42.386;20.434;2022-12-17T09:36:32;6.00;;;1.60;;
63567;SDS011;49715;42.386;20.434;2022-12-17T09:39:17;4.22;;;1.40;;
63567;SDS011;49715;42.386;20.434;2022-12-17T09:42:14;4.35;;;2.28;;
63567;SDS011;49715;42.386;20.434;2022-12-17T09:50:50;3.58;;;1.85;;
63567;SDS011;49715;42.386;20.434;2022-12-17T09:53:37;5.97;;;1.70;;
63567;SDS011;49715;42.386;20.434;2022-12-17T09:56:29;3.40;;;2.13;;
63567;SDS011;49715;42.386;20.434;2022-12-17T09:59:27;2.28;;;1.00;;
63567;SDS011;49715;42.386;20.434;2022-12-17T10:02:21;2.85;;;0.98;;
63567;SDS011;49715;42.386;20.434;2022-12-17T10:05:15;3.92;;;1.40;;
63567;SDS011;49715;42.386;20.434;2022-12-17T10:08:08;4.57;;;2.35;;
63567;SDS011;49715;42.386;20.434;2022-12-17T10:10:57;4.22;;;1.67;;
63567;SDS011;49715;42.386;20.434;2022-12-17T10:13:54;4.97;;;2.45;;
63567;SDS011;49715;42.386;20.434;2022-12-17T10:16:45;4.25;;;1.75;;
63567;SDS011;49715;42.386;20.434;2022-12-17T10:19:31;3.03;;;1.33;;
63567;SDS011;49715;42.386;20.434;2022-12-17T10:22:20;2.40;;;1.80;;
63567;SDS011;49715;42.386;20.434;2022-12-17T10:25:20;4.88;;;2.03;;
63567;SDS011;49715;42.386;20.434;2022-12-17T10:28:11;4.97;;;1.60;;
63567;SDS011;49715;42.386;20.434;2022-12-17T10:30:58;4.47;;;1.85;;
63567;SDS011;49715;42.386;20.434;2022-12-17T10:33:44;5.88;;;3.53;;
63567;SDS011;49715;42.386;20.434;2022-12-17T10:36:30;4.38;;;2.05;;
63567;SDS011;49715;42.386;20.434;2022-12-17T10:39:16;5.10;;;2.65;;
63567;SDS011;49715;42.386;20.434;2022-12-17T10:45:28;4.57;;;2.03;;
63567;SDS011;49715;42.386;20.434;2022-12-17T10:48:22;3.10;;;1.70;;
63567;SDS011;49715;42.386;20.434;2022-12-17T10:54:23;4.13;;;2.05;;
63567;SDS011;49715;42.386;20.434;2022-12-17T11:03:31;9.48;;;2.67;;
63567;SDS011;49715;42.386;20.434;2022-12-17T11:06:29;6.28;;;2.50;;
63567;SDS011;49715;42.386;20.434;2022-12-17T11:09:36;6.50;;;2.40;;
63567;SDS011;49715;42.386;20.434;2022-12-17T11:12:38;4.78;;;1.83;;
63567;SDS011;49715;42.386;20.434;2022-12-17T11:15:32;4.10;;;2.10;;
63567;SDS011;49715;42.386;20.434;2022-12-17T11:18:26;3.80;;;1.88;;
63567;SDS011;49715;42.386;20.434;2022-12-17T11:24:45;4.05;;;1.60;;
63567;SDS011;49715;42.386;20.434;2022-12-17T11:27:45;5.80;;;2.05;;
63567;SDS011;49715;42.386;20.434;2022-12-17T11:30:39;5.72;;;1.80;;
63567;SDS011;49715;42.386;20.434;2022-12-17T11:33:34;4.20;;;1.23;;
63567;SDS011;49715;42.386;20.434;2022-12-17T11:36:45;3.28;;;1.40;;
63567;SDS011;49715;42.386;20.434;2022-12-17T11:39:43;4.82;;;1.95;;
63567;SDS011;49715;42.386;20.434;2022-12-17T11:42:41;4.40;;;1.48;;
63567;SDS011;49715;42.386;20.434;2022-12-17T11:45:38;2.00;;;1.30;;
63567;SDS011;49715;42.386;20.434;2022-12-17T11:52:10;3.47;;;1.65;;
63567;SDS011;49715;42.386;20.434;2022-12-17T11:58:24;4.85;;;2.00;;
63567;SDS011;49715;42.386;20.434;2022-12-17T12:01:25;4.55;;;1.70;;
63567;SDS011;49715;42.386;20.434;2022-12-17T12:10:22;5.47;;;1.92;;
63567;SDS011;49715;42.386;20.434;2022-12-17T12:16:11;3.80;;;1.48;;
63567;SDS011;49715;42.386;20.434;2022-12-17T12:21:55;5.30;;;1.70;;
63567;SDS011;49715;42.386;20.434;2022-12-17T12:27:50;5.90;;;1.65;;
63567;SDS011;49715;42.386;20.434;2022-12-17T12:31:01;4.27;;;1.50;;
63567;SDS011;49715;42.386;20.434;2022-12-17T12:34:13;3.70;;;1.50;;
63567;SDS011;49715;42.386;20.434;2022-12-17T12:37:05;3.97;;;2.38;;
63567;SDS011;49715;42.386;20.434;2022-12-17T12:40:06;3.38;;;1.63;;
63567;SDS011;49715;42.386;20.434;2022-12-17T12:43:21;5.78;;;3.28;;
63567;SDS011;49715;42.386;20.434;2022-12-17T12:49:04;4.40;;;1.95;;
63567;SDS011;49715;42.386;20.434;2022-12-17T12:51:57;6.63;;;1.90;;
63567;SDS011;49715;42.386;20.434;2022-12-17T12:57:32;2.97;;;1.42;;
63567;SDS011;49715;42.386;20.434;2022-12-17T13:00:31;4.47;;;2.00;;
63567;SDS011;49715;42.386;20.434;2022-12-17T13:06:08;5.45;;;2.00;;
63567;SDS011;49715;42.386;20.434;2022-12-17T13:08:36;5.38;;;1.85;;
63567;SDS011;49715;42.386;20.434;2022-12-17T13:14:03;2.53;;;1.30;;
63567;SDS011;49715;42.386;20.434;2022-12-17T13:16:48;3.63;;;1.67;;
63567;SDS011;49715;42.386;20.434;2022-12-17T13:19:34;5.85;;;2.30;;
63567;SDS011;49715;42.386;20.434;2022-12-17T13:24:50;3.40;;;2.10;;
63567;SDS011;49715;42.386;20.434;2022-12-17T13:27:30;3.15;;;2.00;;
63567;SDS011;49715;42.386;20.434;2022-12-17T13:29:57;8.30;;;3.33;;
63567;SDS011;49715;42.386;20.434;2022-12-17T13:32:42;5.00;;;2.20;;
63567;SDS011;49715;42.386;20.434;2022-12-17T13:40:54;4.35;;;2.97;;
63567;SDS011;49715;42.386;20.434;2022-12-17T13:43:37;4.95;;;2.58;;
63567;SDS011;49715;42.386;20.434;2022-12-17T13:46:44;3.65;;;2.17;;
63567;SDS011;49715;42.386;20.434;2022-12-17T13:51:47;7.13;;;3.60;;
63567;SDS011;49715;42.386;20.434;2022-12-17T13:54:24;3.10;;;2.08;;
63567;SDS011;49715;42.386;20.434;2022-12-17T13:56:50;7.05;;;3.47;;
63567;SDS011;49715;42.386;20.434;2022-12-17T13:59:18;5.80;;;2.85;;
63567;SDS011;49715;42.386;20.434;2022-12-17T14:01:47;5.03;;;2.83;;
63567;SDS011;49715;42.386;20.434;2022-12-17T14:04:24;5.88;;;3.13;;
63567;SDS011;49715;42.386;20.434;2022-12-17T14:06:59;6.28;;;3.25;;
63567;SDS011;49715;42.386;20.434;2022-12-17T14:09:41;7.22;;;3.35;;
63567;SDS011;49715;42.386;20.434;2022-12-17T14:12:09;3.28;;;2.30;;
63567;SDS011;49715;42.386;20.434;2022-12-17T14:14:47;7.22;;;3.42;;
63567;SDS011;49715;42.386;20.434;2022-12-17T14:17:25;8.38;;;3.45;;
63567;SDS011;49715;42.386;20.434;2022-12-17T14:19:58;4.65;;;3.25;;
63567;SDS011;49715;42.386;20.434;2022-12-17T14:22:31;9.10;;;4.60;;
63567;SDS011;49715;42.386;20.434;2022-12-17T14:25:13;9.77;;;6.25;;
63567;SDS011;49715;42.386;20.434;2022-12-17T14:27:57;11.02;;;6.43;;
63567;SDS011;49715;42.386;20.434;2022-12-17T14:33:01;8.10;;;6.10;;
63567;SDS011;49715;42.386;20.434;2022-12-17T14:35:29;7.20;;;4.70;;
63567;SDS011;49715;42.386;20.434;2022-12-17T14:37:58;8.60;;;5.10;;
63567;SDS011;49715;42.386;20.434;2022-12-17T14:40:25;8.55;;;5.28;;
63567;SDS011;49715;42.386;20.434;2022-12-17T14:42:56;5.15;;;3.67;;
63567;SDS011;49715;42.386;20.434;2022-12-17T14:45:25;7.22;;;4.97;;
63567;SDS011;49715;42.386;20.434;2022-12-17T14:47:57;6.22;;;3.67;;
63567;SDS011;49715;42.386;20.434;2022-12-17T14:50:27;9.85;;;5.55;;
63567;SDS011;49715;42.386;20.434;2022-12-17T14:52:59;9.52;;;6.15;;
63567;SDS011;49715;42.386;20.434;2022-12-17T14:55:56;10.18;;;5.57;;
63567;SDS011;49715;42.386;20.434;2022-12-17T14:58:24;11.70;;;6.07;;
63567;SDS011;49715;42.386;20.434;2022-12-17T15:03:30;11.15;;;4.65;;
63567;SDS011;49715;42.386;20.434;2022-12-17T15:06:02;7.47;;;4.55;;
63567;SDS011;49715;42.386;20.434;2022-12-17T15:08:32;4.05;;;1.80;;
63567;SDS011;49715;42.386;20.434;2022-12-17T15:11:00;5.47;;;4.15;;
63567;SDS011;49715;42.386;20.434;2022-12-17T15:13:27;9.85;;;4.75;;
63567;SDS011;49715;42.386;20.434;2022-12-17T15:15:53;9.13;;;5.00;;
63567;SDS011;49715;42.386;20.434;2022-12-17T15:18:20;12.13;;;5.90;;
63567;SDS011;49715;42.386;20.434;2022-12-17T15:20:46;7.32;;;4.10;;
63567;SDS011;49715;42.386;20.434;2022-12-17T15:23:17;11.77;;;5.03;;
63567;SDS011;49715;42.386;20.434;2022-12-17T15:25:45;15.45;;;6.53;;
63567;SDS011;49715;42.386;20.434;2022-12-17T15:28:14;20.35;;;10.30;;
63567;SDS011;49715;42.386;20.434;2022-12-17T15:30:41;3.72;;;1.60;;
63567;SDS011;49715;42.386;20.434;2022-12-17T15:35:36;6.45;;;1.98;;
63567;SDS011;49715;42.386;20.434;2022-12-17T15:38:04;19.65;;;10.60;;
63567;SDS011;49715;42.386;20.434;2022-12-17T15:40:31;4.22;;;2.50;;
63567;SDS011;49715;42.386;20.434;2022-12-17T15:42:58;12.35;;;6.80;;
63567;SDS011;49715;42.386;20.434;2022-12-17T15:45:44;13.40;;;9.25;;
63567;SDS011;49715;42.386;20.434;2022-12-17T15:48:13;32.15;;;15.40;;
63567;SDS011;49715;42.386;20.434;2022-12-17T15:50:43;13.48;;;8.70;;
63567;SDS011;49715;42.386;20.434;2022-12-17T15:53:12;5.95;;;3.35;;
63567;SDS011;49715;42.386;20.434;2022-12-17T15:58:08;42.75;;;26.17;;
63567;SDS011;49715;42.386;20.434;2022-12-17T16:00:40;36.63;;;21.88;;
63567;SDS011;49715;42.386;20.434;2022-12-17T16:03:10;34.45;;;22.65;;
63567;SDS011;49715;42.386;20.434;2022-12-17T16:05:39;24.05;;;17.70;;
63567;SDS011;49715;42.386;20.434;2022-12-17T16:08:19;17.73;;;11.85;;
63567;SDS011;49715;42.386;20.434;2022-12-17T16:10:46;22.35;;;15.52;;
63567;SDS011;49715;42.386;20.434;2022-12-17T16:13:12;31.42;;;22.75;;
63567;SDS011;49715;42.386;20.434;2022-12-17T16:15:40;30.33;;;21.08;;
63567;SDS011;49715;42.386;20.434;2022-12-17T16:18:14;29.30;;;19.48;;
63567;SDS011;49715;42.386;20.434;2022-12-17T16:20:42;33.05;;;23.00;;
63567;SDS011;49715;42.386;20.434;2022-12-17T16:23:08;33.17;;;23.13;;
63567;SDS011;49715;42.386;20.434;2022-12-17T16:25:38;50.42;;;35.60;;
63567;SDS011;49715;42.386;20.434;2022-12-17T16:28:04;49.70;;;36.67;;
63567;SDS011;49715;42.386;20.434;2022-12-17T16:30:34;37.60;;;28.50;;
63567;SDS011;49715;42.386;20.434;2022-12-17T16:33:00;54.77;;;41.47;;
63567;SDS011;49715;42.386;20.434;2022-12-17T16:35:26;59.83;;;41.33;;
63567;SDS011;49715;42.386;20.434;2022-12-17T16:37:56;58.25;;;40.72;;
63567;SDS011;49715;42.386;20.434;2022-12-17T16:40:22;50.63;;;38.05;;
63567;SDS011;49715;42.386;20.434;2022-12-17T16:42:48;59.42;;;42.03;;
63567;SDS011;49715;42.386;20.434;2022-12-17T16:45:15;72.63;;;53.55;;
63567;SDS011;49715;42.386;20.434;2022-12-17T16:47:41;71.10;;;48.42;;
63567;SDS011;49715;42.386;20.434;2022-12-17T16:50:08;60.13;;;38.17;;
63567;SDS011;49715;42.386;20.434;2022-12-17T16:52:34;60.40;;;42.03;;
63567;SDS011;49715;42.386;20.434;2022-12-17T16:55:03;48.65;;;34.05;;
63567;SDS011;49715;42.386;20.434;2022-12-17T16:57:30;53.97;;;38.47;;
63567;SDS011;49715;42.386;20.434;2022-12-17T16:59:56;51.22;;;35.92;;
63567;SDS011;49715;42.386;20.434;2022-12-17T17:02:23;51.25;;;36.35;;
63567;SDS011;49715;42.386;20.434;2022-12-17T17:04:49;76.95;;;52.63;;
63567;SDS011;49715;42.386;20.434;2022-12-17T17:07:16;72.83;;;51.37;;
63567;SDS011;49715;42.386;20.434;2022-12-17T17:09:42;65.10;;;50.67;;
63567;SDS011;49715;42.386;20.434;2022-12-17T17:12:08;70.35;;;51.63;;
63567;SDS011;49715;42.386;20.434;2022-12-17T17:14:36;99.00;;;63.50;;
63567;SDS011;49715;42.386;20.434;2022-12-17T17:17:03;107.13;;;72.27;;
63567;SDS011;49715;42.386;20.434;2022-12-17T17:19:29;66.45;;;46.13;;
63567;SDS011;49715;42.386;20.434;2022-12-17T17:21:55;59.73;;;44.43;;
63567;SDS011;49715;42.386;20.434;2022-12-17T17:24:22;61.83;;;43.67;;
63567;SDS011;49715;42.386;20.434;2022-12-17T17:26:51;43.05;;;30.98;;
63567;SDS011;49715;42.386;20.434;2022-12-17T17:29:18;57.08;;;38.38;;
63567;SDS011;49715;42.386;20.434;2022-12-17T17:31:45;49.30;;;36.25;;
63567;SDS011;49715;42.386;20.434;2022-12-17T17:34:12;65.30;;;47.60;;